sensor_id;sensor_type;location;lat;lon;timestamp;P1;P2;P0
42002;PMS7003;27693;50.506;30.832;2022-12-29T00:00:53;28.80;24.50;18.10
42002;PMS7003;27693;50.506;30.832;2022-12-29T00:01:55;28.10;21.50;15.20
42002;PMS7003;27693;50.506;30.832;2022-12-29T00:02:57;31.40;25.10;19.60
42002;PMS7003;27693;50.506;30.832;2022-12-29T00:04:00;33.60;27.90;18.80
42002;PMS7003;27693;50.506;30.832;2022-12-29T00:05:05;31.60;25.40;16.40
42002;PMS7003;27693;50.506;30.832;2022-12-29T00:06:08;36.90;28.50;19.80
42002;PMS7003;27693;50.506;30.832;2022-12-29T00:07:11;37.80;26.30;19.80
42002;PMS7003;27693;50.506;30.832;2022-12-29T00:08:13;31.20;26.10;18.50
42002;PMS7003;27693;50.506;30.832;2022-12-29T00:09:18;32.70;24.40;16.20
42002;PMS7003;27693;50.506;30.832;2022-12-29T00:10:21;21.70;21.10;14.90
42002;PMS7003;27693;50.506;30.832;2022-12-29T00:11:24;32.50;25.80;18.70
42002;PMS7003;27693;50.506;30.832;2022-12-29T00:12:29;26.70;21.70;15.80
42002;PMS7003;27693;50.506;30.832;2022-12-29T00:13:44;30.60;26.70;20.40
42002;PMS7003;27693;50.506;30.832;2022-12-29T00:15:11;35.90;27.70;20.10
42002;PMS7003;27693;50.506;30.832;2022-12-29T00:16:33;29.00;23.00;15.40
42002;PMS7003;27693;50.506;30.832;2022-12-29T00:17:38;15.50;14.40;9.10
42002;PMS7003;27693;50.506;30.832;2022-12-29T00:18:45;29.40;27.70;18.10
42002;PMS7003;27693;50.506;30.832;2022-12-29T00:19:57;27.80;19.80;12.20
42002;PMS7003;27693;50.506;30.832;2022-12-29T00:21:20;32.10;25.10;17.90
42002;PMS7003;27693;50.506;30.832;2022-12-29T00:22:43;24.60;20.30;13.80
42002;PMS7003;27693;50.506;30.832;2022-12-29T00:24:26;29.90;22.20;16.60
42002;PMS7003;27693;50.506;30.832;2022-12-29T00:25:31;34.40;25.70;17.00
42002;PMS7003;27693;50.506;30.832;2022-12-29T00:28:26;33.10;23.70;17.30
42002;PMS7003;27693;50.506;30.832;2022-12-29T00:29:49;24.90;17.70;13.10
42002;PMS7003;27693;50.506;30.832;2022-12-29T00:31:11;13.60;10.50;5.10
42002;PMS7003;27693;50.506;30.832;2022-12-29T00:32:33;21.10;17.30;13.80
42002;PMS7003;27693;50.506;30.832;2022-12-29T00:33:54;25.90;21.20;15.80
42002;PMS7003;27693;50.506;30.832;2022-12-29T00:35:22;31.10;23.60;16.20
42002;PMS7003;27693;50.506;30.832;2022-12-29T00:36:32;24.50;17.90;15.90
42002;PMS7003;27693;50.506;30.832;2022-12-29T00:37:42;32.00;26.20;17.00
42002;PMS7003;27693;50.506;30.832;2022-12-29T00:39:09;31.20;25.50;17.50
42002;PMS7003;27693;50.506;30.832;2022-12-29T00:40:31;25.90;25.70;16.70
42002;PMS7003;27693;50.506;30.832;2022-12-29T00:41:52;26.80;22.10;15.80
42002;PMS7003;27693;50.506;30.832;2022-12-29T00:43:16;28.70;21.80;15.90
42002;PMS7003;27693;50.506;30.832;2022-12-29T00:44:36;30.10;23.40;15.70
42002;PMS7003;27693;50.506;30.832;2022-12-29T00:45:41;27.10;22.40;16.50
42002;PMS7003;27693;50.506;30.832;2022-12-29T00:46:44;24.60;22.30;15.00
42002;PMS7003;27693;50.506;30.832;2022-12-29T00:47:48;27.20;22.70;17.20
42002;PMS7003;27693;50.506;30.832;2022-12-29T00:48:54;25.50;14.60;11.20
42002;PMS7003;27693;50.506;30.832;2022-12-29T00:50:17;29.30;20.20;14.40
42002;PMS7003;27693;50.506;30.832;2022-12-29T00:51:19;19.00;16.40;9.70
42002;PMS7003;27693;50.506;30.832;2022-12-29T00:52:22;29.40;22.00;16.30
42002;PMS7003;27693;50.506;30.832;2022-12-29T00:53:24;24.00;21.40;15.40
42002;PMS7003;27693;50.506;30.832;2022-12-29T00:54:29;26.90;22.50;16.10
42002;PMS7003;27693;50.506;30.832;2022-12-29T00:55:37;25.90;20.10;13.20
42002;PMS7003;27693;50.506;30.832;2022-12-29T00:56:41;28.00;24.20;16.50
42002;PMS7003;27693;50.506;30.832;2022-12-29T00:57:43;25.00;18.50;13.20
42002;PMS7003;27693;50.506;30.832;2022-12-29T00:58:46;32.40;23.40;15.80
42002;PMS7003;27693;50.506;30.832;2022-12-29T00:59:48;24.44;18.00;12.33
42002;PMS7003;27693;50.506;30.832;2022-12-29T01:00:50;27.20;23.20;17.70
42002;PMS7003;27693;50.506;30.832;2022-12-29T01:01:53;28.90;21.90;16.40
42002;PMS7003;27693;50.506;30.832;2022-12-29T01:02:56;28.40;22.70;16.10
42002;PMS7003;27693;50.506;30.832;2022-12-29T01:03:59;18.20;15.10;7.70
42002;PMS7003;27693;50.506;30.832;2022-12-29T01:05:04;22.40;16.60;14.90
42002;PMS7003;27693;50.506;30.832;2022-12-29T01:06:07;21.00;17.60;12.20
42002;PMS7003;27693;50.506;30.832;2022-12-29T01:07:11;27.50;23.00;16.80
42002;PMS7003;27693;50.506;30.832;2022-12-29T01:08:14;26.60;23.70;16.20
42002;PMS7003;27693;50.506;30.832;2022-12-29T01:09:17;30.18;22.27;14.91
42002;PMS7003;27693;50.506;30.832;2022-12-29T01:10:38;23.60;16.30;10.50
42002;PMS7003;27693;50.506;30.832;2022-12-29T01:11:41;34.30;26.40;17.10
42002;PMS7003;27693;50.506;30.832;2022-12-29T01:12:43;23.30;21.50;15.50
42002;PMS7003;27693;50.506;30.832;2022-12-29T01:13:46;27.70;22.90;16.10
42002;PMS7003;27693;50.506;30.832;2022-12-29T01:14:48;25.89;20.78;14.67
42002;PMS7003;27693;50.506;30.832;2022-12-29T01:15:50;25.22;21.44;14.11
42002;PMS7003;27693;50.506;30.832;2022-12-29T01:16:59;24.90;22.00;15.90
42002;PMS7003;27693;50.506;30.832;2022-12-29T01:18:07;27.70;21.90;13.00
42002;PMS7003;27693;50.506;30.832;2022-12-29T01:19:09;24.20;19.50;13.40
42002;PMS7003;27693;50.506;30.832;2022-12-29T01:20:13;26.90;21.70;15.40
42002;PMS7003;27693;50.506;30.832;2022-12-29T01:21:15;27.20;18.80;12.80
42002;PMS7003;27693;50.506;30.832;2022-12-29T01:22:19;24.50;21.30;16.60
42002;PMS7003;27693;50.506;30.832;2022-12-29T01:23:24;29.20;21.40;15.10
42002;PMS7003;27693;50.506;30.832;2022-12-29T01:24:26;24.50;19.20;14.10
42002;PMS7003;27693;50.506;30.832;2022-12-29T01:25:29;22.80;21.00;13.50
42002;PMS7003;27693;50.506;30.832;2022-12-29T01:26:34;23.10;20.70;14.10
42002;PMS7003;27693;50.506;30.832;2022-12-29T01:27:36;27.40;21.70;15.20
42002;PMS7003;27693;50.506;30.832;2022-12-29T01:28:39;29.50;25.00;17.60
42002;PMS7003;27693;50.506;30.832;2022-12-29T01:29:41;24.70;19.70;13.10
42002;PMS7003;27693;50.506;30.832;2022-12-29T01:30:44;24.64;18.82;13.09
42002;PMS7003;27693;50.506;30.832;2022-12-29T01:31:47;25.00;18.90;14.40
42002;PMS7003;27693;50.506;30.832;2022-12-29T01:32:52;23.00;21.30;13.70
42002;PMS7003;27693;50.506;30.832;2022-12-29T01:33:54;32.20;22.80;16.30
42002;PMS7003;27693;50.506;30.832;2022-12-29T01:34:56;22.00;15.30;9.50
42002;PMS7003;27693;50.506;30.832;2022-12-29T01:36:07;23.40;17.80;12.20
42002;PMS7003;27693;50.506;30.832;2022-12-29T01:37:07;18.10;14.70;7.90
42002;PMS7003;27693;50.506;30.832;2022-12-29T01:38:09;24.40;20.50;14.90
42002;PMS7003;27693;50.506;30.832;2022-12-29T01:39:11;30.50;19.90;11.20
42002;PMS7003;27693;50.506;30.832;2022-12-29T01:40:15;22.00;18.30;12.90
42002;PMS7003;27693;50.506;30.832;2022-12-29T01:41:19;25.10;19.50;14.20
42002;PMS7003;27693;50.506;30.832;2022-12-29T01:42:23;22.60;18.80;13.20
42002;PMS7003;27693;50.506;30.832;2022-12-29T01:43:45;26.36;20.91;13.55
42002;PMS7003;27693;50.506;30.832;2022-12-29T01:45:00;13.50;12.00;6.10
42002;PMS7003;27693;50.506;30.832;2022-12-29T01:46:53;24.20;19.30;13.90
42002;PMS7003;27693;50.506;30.832;2022-12-29T01:47:23;22.90;17.50;12.60
42002;PMS7003;27693;50.506;30.832;2022-12-29T01:48:26;22.10;19.80;14.50
42002;PMS7003;27693;50.506;30.832;2022-12-29T01:49:28;19.70;14.80;10.70
42002;PMS7003;27693;50.506;30.832;2022-12-29T01:50:32;20.55;16.55;12.18
42002;PMS7003;27693;50.506;30.832;2022-12-29T01:53:00;21.60;16.40;11.20
42002;PMS7003;27693;50.506;30.832;2022-12-29T01:54:09;25.00;18.70;13.10
42002;PMS7003;27693;50.506;30.832;2022-12-29T01:55:22;21.50;19.40;13.10
42002;PMS7003;27693;50.506;30.832;2022-12-29T01:56:25;16.80;14.40;10.50
42002;PMS7003;27693;50.506;30.832;2022-12-29T01:57:28;18.90;15.60;11.30
42002;PMS7003;27693;50.506;30.832;2022-12-29T01:58:36;19.80;12.90;9.70
42002;PMS7003;27693;50.506;30.832;2022-12-29T01:59:43;18.30;14.00;11.00
42002;PMS7003;27693;50.506;30.832;2022-12-29T02:00:47;22.30;16.80;12.10
42002;PMS7003;27693;50.506;30.832;2022-12-29T02:01:50;19.40;16.10;11.60
42002;PMS7003;27693;50.506;30.832;2022-12-29T02:02:54;18.20;12.90;9.80
42002;PMS7003;27693;50.506;30.832;2022-12-29T02:03:57;21.60;17.70;11.90
42002;PMS7003;27693;50.506;30.832;2022-12-29T02:05:03;18.80;11.40;7.60
42002;PMS7003;27693;50.506;30.832;2022-12-29T02:06:14;20.30;15.50;10.60
42002;PMS7003;27693;50.506;30.832;2022-12-29T02:07:20;12.50;10.70;7.80
42002;PMS7003;27693;50.506;30.832;2022-12-29T02:08:25;19.60;14.70;11.30
42002;PMS7003;27693;50.506;30.832;2022-12-29T02:09:30;20.50;15.50;11.30
42002;PMS7003;27693;50.506;30.832;2022-12-29T02:10:32;16.50;10.70;9.20
42002;PMS7003;27693;50.506;30.832;2022-12-29T02:11:37;17.80;14.90;11.90
42002;PMS7003;27693;50.506;30.832;2022-12-29T02:12:41;16.80;12.50;9.90
42002;PMS7003;27693;50.506;30.832;2022-12-29T02:13:44;17.27;12.36;10.00
42002;PMS7003;27693;50.506;30.832;2022-12-29T02:14:47;17.64;14.55;11.82
42002;PMS7003;27693;50.506;30.832;2022-12-29T02:30:12;16.40;13.20;9.40
42002;PMS7003;27693;50.506;30.832;2022-12-29T02:36:43;16.40;13.40;8.80
42002;PMS7003;27693;50.506;30.832;2022-12-29T02:38:00;15.30;11.30;9.00
42002;PMS7003;27693;50.506;30.832;2022-12-29T02:40:44;15.20;12.20;9.30
42002;PMS7003;27693;50.506;30.832;2022-12-29T02:43:40;14.30;12.50;9.20
42002;PMS7003;27693;50.506;30.832;2022-12-29T02:44:49;14.90;10.40;6.70
42002;PMS7003;27693;50.506;30.832;2022-12-29T02:45:54;15.30;12.50;10.60
42002;PMS7003;27693;50.506;30.832;2022-12-29T02:47:00;18.30;13.20;9.60
42002;PMS7003;27693;50.506;30.832;2022-12-29T02:48:15;14.50;11.60;9.70
42002;PMS7003;27693;50.506;30.832;2022-12-29T02:49:22;15.20;14.90;10.90
42002;PMS7003;27693;50.506;30.832;2022-12-29T02:50:32;14.20;12.70;9.10
42002;PMS7003;27693;50.506;30.832;2022-12-29T02:52:18;15.60;10.60;7.90
42002;PMS7003;27693;50.506;30.832;2022-12-29T02:52:49;17.30;13.10;10.80
42002;PMS7003;27693;50.506;30.832;2022-12-29T02:54:01;17.10;13.50;11.90
42002;PMS7003;27693;50.506;30.832;2022-12-29T02:55:23;12.30;10.40;7.80
42002;PMS7003;27693;50.506;30.832;2022-12-29T02:56:26;20.27;14.55;11.27
42002;PMS7003;27693;50.506;30.832;2022-12-29T02:57:31;15.20;10.40;7.30
42002;PMS7003;27693;50.506;30.832;2022-12-29T02:58:36;11.50;7.70;5.20
42002;PMS7003;27693;50.506;30.832;2022-12-29T02:59:38;18.30;14.60;10.50
42002;PMS7003;27693;50.506;30.832;2022-12-29T03:00:46;16.90;13.30;10.30
42002;PMS7003;27693;50.506;30.832;2022-12-29T03:12:03;12.70;10.70;7.50
42002;PMS7003;27693;50.506;30.832;2022-12-29T03:14:52;17.90;12.00;9.50
42002;PMS7003;27693;50.506;30.832;2022-12-29T03:17:51;17.70;15.00;10.60
42002;PMS7003;27693;50.506;30.832;2022-12-29T03:20:41;14.30;12.20;10.50
42002;PMS7003;27693;50.506;30.832;2022-12-29T03:21:46;17.10;11.10;8.70
42002;PMS7003;27693;50.506;30.832;2022-12-29T03:23:11;11.80;10.90;7.70
42002;PMS7003;27693;50.506;30.832;2022-12-29T03:24:18;19.00;13.80;10.10
42002;PMS7003;27693;50.506;30.832;2022-12-29T03:25:23;15.00;11.00;9.50
42002;PMS7003;27693;50.506;30.832;2022-12-29T03:26:28;13.60;9.10;7.40
42002;PMS7003;27693;50.506;30.832;2022-12-29T03:27:35;11.60;10.10;8.70
42002;PMS7003;27693;50.506;30.832;2022-12-29T03:28:52;17.90;13.00;10.60
42002;PMS7003;27693;50.506;30.832;2022-12-29T03:29:57;6.40;6.40;4.40
42002;PMS7003;27693;50.506;30.832;2022-12-29T03:31:01;16.60;13.20;9.90
42002;PMS7003;27693;50.506;30.832;2022-12-29T03:32:07;8.40;6.40;3.20
42002;PMS7003;27693;50.506;30.832;2022-12-29T03:33:12;13.50;11.70;9.40
42002;PMS7003;27693;50.506;30.832;2022-12-29T03:34:20;15.90;11.80;9.70
42002;PMS7003;27693;50.506;30.832;2022-12-29T03:35:25;17.60;12.80;9.80
42002;PMS7003;27693;50.506;30.832;2022-12-29T03:39:20;19.00;12.50;9.80
42002;PMS7003;27693;50.506;30.832;2022-12-29T03:40:25;16.20;12.60;11.20
42002;PMS7003;27693;50.506;30.832;2022-12-29T03:41:32;14.20;11.50;7.90
42002;PMS7003;27693;50.506;30.832;2022-12-29T03:42:37;13.80;10.10;7.50
42002;PMS7003;27693;50.506;30.832;2022-12-29T03:43:42;15.50;14.50;11.50
42002;PMS7003;27693;50.506;30.832;2022-12-29T03:44:46;13.91;12.18;8.64
42002;PMS7003;27693;50.506;30.832;2022-12-29T03:45:49;16.50;12.90;8.30
42002;PMS7003;27693;50.506;30.832;2022-12-29T03:46:52;15.91;11.45;8.55
42002;PMS7003;27693;50.506;30.832;2022-12-29T03:47:55;15.90;12.00;9.90
42002;PMS7003;27693;50.506;30.832;2022-12-29T03:48:57;19.80;13.50;10.50
42002;PMS7003;27693;50.506;30.832;2022-12-29T03:50:00;15.80;11.90;8.30
42002;PMS7003;27693;50.506;30.832;2022-12-29T03:51:04;18.90;12.90;10.20
42002;PMS7003;27693;50.506;30.832;2022-12-29T03:52:07;6.45;6.18;4.55
42002;PMS7003;27693;50.506;30.832;2022-12-29T03:53:11;16.40;13.40;9.60
42002;PMS7003;27693;50.506;30.832;2022-12-29T03:54:14;21.00;13.70;10.50
42002;PMS7003;27693;50.506;30.832;2022-12-29T03:55:17;18.50;11.60;8.00
42002;PMS7003;27693;50.506;30.832;2022-12-29T03:56:20;11.91;9.09;5.82
42002;PMS7003;27693;50.506;30.832;2022-12-29T03:57:22;16.10;11.60;7.80
42002;PMS7003;27693;50.506;30.832;2022-12-29T03:58:27;18.90;13.90;11.50
42002;PMS7003;27693;50.506;30.832;2022-12-29T03:59:33;16.40;14.10;10.70
42002;PMS7003;27693;50.506;30.832;2022-12-29T04:00:36;20.60;13.00;9.40
42002;PMS7003;27693;50.506;30.832;2022-12-29T04:01:38;14.20;12.80;9.70
42002;PMS7003;27693;50.506;30.832;2022-12-29T04:02:42;20.10;14.50;10.50
42002;PMS7003;27693;50.506;30.832;2022-12-29T04:03:46;16.60;14.50;9.90
42002;PMS7003;27693;50.506;30.832;2022-12-29T04:04:48;18.10;15.40;11.70
42002;PMS7003;27693;50.506;30.832;2022-12-29T04:05:53;13.60;10.20;7.00
42002;PMS7003;27693;50.506;30.832;2022-12-29T04:06:56;11.00;8.40;5.30
42002;PMS7003;27693;50.506;30.832;2022-12-29T04:07:58;14.50;10.30;6.50
42002;PMS7003;27693;50.506;30.832;2022-12-29T04:09:02;17.90;12.70;10.70
42002;PMS7003;27693;50.506;30.832;2022-12-29T04:10:07;15.70;12.70;9.60
42002;PMS7003;27693;50.506;30.832;2022-12-29T04:11:10;18.10;13.10;9.10
42002;PMS7003;27693;50.506;30.832;2022-12-29T04:12:13;13.50;8.50;4.30
42002;PMS7003;27693;50.506;30.832;2022-12-29T04:13:16;19.50;11.00;8.60
42002;PMS7003;27693;50.506;30.832;2022-12-29T04:14:19;15.20;10.30;8.60
42002;PMS7003;27693;50.506;30.832;2022-12-29T04:15:21;19.10;12.80;8.80
42002;PMS7003;27693;50.506;30.832;2022-12-29T04:16:26;12.30;10.50;7.80
42002;PMS7003;27693;50.506;30.832;2022-12-29T04:17:29;14.00;11.50;10.50
42002;PMS7003;27693;50.506;30.832;2022-12-29T04:18:32;19.55;13.36;10.00
42002;PMS7003;27693;50.506;30.832;2022-12-29T04:19:35;16.70;14.20;10.50
42002;PMS7003;27693;50.506;30.832;2022-12-29T04:20:38;17.00;14.27;9.64
42002;PMS7003;27693;50.506;30.832;2022-12-29T04:21:59;7.80;7.20;6.80
42002;PMS7003;27693;50.506;30.832;2022-12-29T04:23:02;16.30;14.50;11.00
42002;PMS7003;27693;50.506;30.832;2022-12-29T04:24:08;7.80;7.40;6.80
42002;PMS7003;27693;50.506;30.832;2022-12-29T04:25:12;18.40;15.10;11.80
42002;PMS7003;27693;50.506;30.832;2022-12-29T04:26:17;4.90;4.90;2.60
42002;PMS7003;27693;50.506;30.832;2022-12-29T04:27:21;12.00;10.20;7.30
42002;PMS7003;27693;50.506;30.832;2022-12-29T04:28:25;17.70;15.20;11.70
42002;PMS7003;27693;50.506;30.832;2022-12-29T04:29:42;12.10;8.70;5.30
42002;PMS7003;27693;50.506;30.832;2022-12-29T04:30:55;13.20;11.50;8.60
42002;PMS7003;27693;50.506;30.832;2022-12-29T04:31:59;23.20;14.60;10.70
42002;PMS7003;27693;50.506;30.832;2022-12-29T04:33:03;16.70;13.90;10.90
42002;PMS7003;27693;50.506;30.832;2022-12-29T04:34:06;19.80;16.70;12.10
42002;PMS7003;27693;50.506;30.832;2022-12-29T04:35:08;18.90;13.90;11.60
42002;PMS7003;27693;50.506;30.832;2022-12-29T04:36:11;15.30;12.90;10.00
42002;PMS7003;27693;50.506;30.832;2022-12-29T04:37:14;7.18;7.18;6.27
42002;PMS7003;27693;50.506;30.832;2022-12-29T04:38:16;15.00;13.50;9.30
42002;PMS7003;27693;50.506;30.832;2022-12-29T04:39:21;21.10;15.30;11.60
42002;PMS7003;27693;50.506;30.832;2022-12-29T04:40:24;13.82;8.64;5.18
42002;PMS7003;27693;50.506;30.832;2022-12-29T04:41:26;19.40;10.50;7.60
42002;PMS7003;27693;50.506;30.832;2022-12-29T04:42:29;15.30;10.70;6.90
42002;PMS7003;27693;50.506;30.832;2022-12-29T04:43:31;17.00;14.00;10.70
42002;PMS7003;27693;50.506;30.832;2022-12-29T04:44:52;15.80;13.20;9.40
42002;PMS7003;27693;50.506;30.832;2022-12-29T04:46:09;18.30;15.10;11.80
42002;PMS7003;27693;50.506;30.832;2022-12-29T04:47:25;13.70;11.30;9.40
42002;PMS7003;27693;50.506;30.832;2022-12-29T04:48:46;16.30;13.00;10.00
42002;PMS7003;27693;50.506;30.832;2022-12-29T04:50:03;20.60;15.80;12.30
42002;PMS7003;27693;50.506;30.832;2022-12-29T04:51:11;18.00;16.20;12.10
42002;PMS7003;27693;50.506;30.832;2022-12-29T04:52:14;17.40;15.80;11.20
42002;PMS7003;27693;50.506;30.832;2022-12-29T04:53:18;20.80;15.80;10.80
42002;PMS7003;27693;50.506;30.832;2022-12-29T04:54:20;16.90;11.80;7.70
42002;PMS7003;27693;50.506;30.832;2022-12-29T04:55:24;10.90;7.80;4.80
42002;PMS7003;27693;50.506;30.832;2022-12-29T04:56:27;13.00;9.30;7.80
42002;PMS7003;27693;50.506;30.832;2022-12-29T04:57:30;19.70;16.40;10.40
42002;PMS7003;27693;50.506;30.832;2022-12-29T04:58:34;22.00;17.10;13.30
42002;PMS7003;27693;50.506;30.832;2022-12-29T04:59:37;12.82;8.36;5.36
42002;PMS7003;27693;50.506;30.832;2022-12-29T05:00:43;19.10;14.70;10.90
42002;PMS7003;27693;50.506;30.832;2022-12-29T05:01:45;19.70;12.30;8.30
42002;PMS7003;27693;50.506;30.832;2022-12-29T05:02:50;18.80;15.20;11.00
42002;PMS7003;27693;50.506;30.832;2022-12-29T05:03:53;19.90;14.10;11.20
42002;PMS7003;27693;50.506;30.832;2022-12-29T05:04:56;18.09;15.18;11.45
42002;PMS7003;27693;50.506;30.832;2022-12-29T05:05:58;21.50;13.90;10.30
42002;PMS7003;27693;50.506;30.832;2022-12-29T05:07:01;18.55;15.36;11.18
42002;PMS7003;27693;50.506;30.832;2022-12-29T05:08:04;23.00;15.30;11.00
42002;PMS7003;27693;50.506;30.832;2022-12-29T05:09:06;23.60;15.20;10.40
42002;PMS7003;27693;50.506;30.832;2022-12-29T05:10:10;21.30;14.90;11.00
42002;PMS7003;27693;50.506;30.832;2022-12-29T05:11:13;15.45;13.18;9.73
42002;PMS7003;27693;50.506;30.832;2022-12-29T05:12:15;15.60;12.20;9.20
42002;PMS7003;27693;50.506;30.832;2022-12-29T05:13:23;15.20;13.40;10.70
42002;PMS7003;27693;50.506;30.832;2022-12-29T05:14:27;15.80;14.90;10.20
42002;PMS7003;27693;50.506;30.832;2022-12-29T05:15:29;19.30;15.80;9.40
42002;PMS7003;27693;50.506;30.832;2022-12-29T05:16:33;13.90;13.70;9.80
42002;PMS7003;27693;50.506;30.832;2022-12-29T05:17:35;18.70;13.40;8.80
42002;PMS7003;27693;50.506;30.832;2022-12-29T05:18:59;14.90;13.70;10.60
42002;PMS7003;27693;50.506;30.832;2022-12-29T05:20:10;13.00;12.40;10.20
42002;PMS7003;27693;50.506;30.832;2022-12-29T05:21:09;15.70;12.20;10.80
42002;PMS7003;27693;50.506;30.832;2022-12-29T05:22:13;17.40;15.30;11.70
42002;PMS7003;27693;50.506;30.832;2022-12-29T05:23:18;15.60;9.90;6.80
42002;PMS7003;27693;50.506;30.832;2022-12-29T05:24:23;17.60;14.20;10.50
42002;PMS7003;27693;50.506;30.832;2022-12-29T05:25:27;15.70;13.50;10.40
42002;PMS7003;27693;50.506;30.832;2022-12-29T05:26:34;18.80;12.50;9.30
42002;PMS7003;27693;50.506;30.832;2022-12-29T05:27:41;18.30;13.60;10.10
42002;PMS7003;27693;50.506;30.832;2022-12-29T05:28:45;14.40;12.50;10.30
42002;PMS7003;27693;50.506;30.832;2022-12-29T05:29:49;13.70;6.60;5.10
42002;PMS7003;27693;50.506;30.832;2022-12-29T05:30:52;21.00;14.60;10.70
42002;PMS7003;27693;50.506;30.832;2022-12-29T05:31:59;18.90;15.30;11.80
42002;PMS7003;27693;50.506;30.832;2022-12-29T05:33:02;13.50;10.40;6.90
42002;PMS7003;27693;50.506;30.832;2022-12-29T05:34:10;17.00;12.40;10.00
42002;PMS7003;27693;50.506;30.832;2022-12-29T05:35:14;20.00;14.20;10.40
42002;PMS7003;27693;50.506;30.832;2022-12-29T05:36:17;15.40;14.20;11.60
42002;PMS7003;27693;50.506;30.832;2022-12-29T05:37:23;16.10;14.50;10.60
42002;PMS7003;27693;50.506;30.832;2022-12-29T05:38:25;10.10;8.90;6.10
42002;PMS7003;27693;50.506;30.832;2022-12-29T05:39:27;20.50;18.00;13.60
42002;PMS7003;27693;50.506;30.832;2022-12-29T05:40:32;18.00;14.90;11.10
42002;PMS7003;27693;50.506;30.832;2022-12-29T05:41:36;16.00;14.90;11.00
42002;PMS7003;27693;50.506;30.832;2022-12-29T05:42:42;18.10;15.10;12.00
42002;PMS7003;27693;50.506;30.832;2022-12-29T05:43:50;15.80;12.80;10.50
42002;PMS7003;27693;50.506;30.832;2022-12-29T05:44:57;17.90;14.00;10.80
42002;PMS7003;27693;50.506;30.832;2022-12-29T05:46:14;16.20;10.50;7.10
42002;PMS7003;27693;50.506;30.832;2022-12-29T05:47:21;20.30;15.60;11.00
42002;PMS7003;27693;50.506;30.832;2022-12-29T05:48:29;18.70;12.70;8.80
42002;PMS7003;27693;50.506;30.832;2022-12-29T05:49:53;20.30;16.20;11.20
42002;PMS7003;27693;50.506;30.832;2022-12-29T05:50:58;20.90;17.50;12.10
42002;PMS7003;27693;50.506;30.832;2022-12-29T05:52:02;16.00;12.70;11.60
42002;PMS7003;27693;50.506;30.832;2022-12-29T05:53:07;16.70;11.00;4.60
42002;PMS7003;27693;50.506;30.832;2022-12-29T05:54:11;18.90;16.40;12.30
42002;PMS7003;27693;50.506;30.832;2022-12-29T05:55:15;17.30;15.70;12.10
42002;PMS7003;27693;50.506;30.832;2022-12-29T05:56:21;21.80;15.40;11.80
42002;PMS7003;27693;50.506;30.832;2022-12-29T05:57:25;19.50;15.80;11.50
42002;PMS7003;27693;50.506;30.832;2022-12-29T05:58:30;21.10;17.10;12.50
42002;PMS7003;27693;50.506;30.832;2022-12-29T05:59:32;19.70;15.10;9.80
42002;PMS7003;27693;50.506;30.832;2022-12-29T06:00:34;22.00;17.70;13.30
42002;PMS7003;27693;50.506;30.832;2022-12-29T06:01:37;20.10;15.90;11.20
42002;PMS7003;27693;50.506;30.832;2022-12-29T06:02:39;20.70;16.00;11.40
42002;PMS7003;27693;50.506;30.832;2022-12-29T06:03:43;20.70;15.60;11.30
42002;PMS7003;27693;50.506;30.832;2022-12-29T06:04:47;15.50;9.00;6.90
42002;PMS7003;27693;50.506;30.832;2022-12-29T06:05:51;15.60;13.30;10.10
42002;PMS7003;27693;50.506;30.832;2022-12-29T06:06:53;19.30;17.70;12.40
42002;PMS7003;27693;50.506;30.832;2022-12-29T06:07:58;14.00;14.00;11.90
42002;PMS7003;27693;50.506;30.832;2022-12-29T06:09:00;25.00;16.50;11.70
42002;PMS7003;27693;50.506;30.832;2022-12-29T06:10:04;15.60;14.00;10.80
42002;PMS7003;27693;50.506;30.832;2022-12-29T06:11:10;22.70;18.20;11.20
42002;PMS7003;27693;50.506;30.832;2022-12-29T06:12:14;18.60;14.80;11.50
42002;PMS7003;27693;50.506;30.832;2022-12-29T06:13:20;18.60;13.40;9.90
42002;PMS7003;27693;50.506;30.832;2022-12-29T06:14:24;11.90;8.00;5.70
42002;PMS7003;27693;50.506;30.832;2022-12-29T06:15:27;21.90;19.00;13.60
42002;PMS7003;27693;50.506;30.832;2022-12-29T06:16:30;17.00;15.55;12.27
42002;PMS7003;27693;50.506;30.832;2022-12-29T06:17:34;19.40;13.30;11.70
42002;PMS7003;27693;50.506;30.832;2022-12-29T06:18:37;12.18;10.09;5.00
42002;PMS7003;27693;50.506;30.832;2022-12-29T06:19:40;20.18;19.45;13.64
42002;PMS7003;27693;50.506;30.832;2022-12-29T06:20:42;21.00;17.45;12.55
42002;PMS7003;27693;50.506;30.832;2022-12-29T06:21:45;25.50;16.90;13.10
42002;PMS7003;27693;50.506;30.832;2022-12-29T06:22:48;18.50;16.50;11.40
42002;PMS7003;27693;50.506;30.832;2022-12-29T06:23:52;22.70;18.00;13.00
42002;PMS7003;27693;50.506;30.832;2022-12-29T06:24:55;16.90;15.80;11.70
42002;PMS7003;27693;50.506;30.832;2022-12-29T06:25:59;18.40;17.70;12.40
42002;PMS7003;27693;50.506;30.832;2022-12-29T06:27:02;17.40;14.80;11.10
42002;PMS7003;27693;50.506;30.832;2022-12-29T06:28:05;22.30;15.10;12.80
42002;PMS7003;27693;50.506;30.832;2022-12-29T06:29:15;20.40;17.50;13.00
42002;PMS7003;27693;50.506;30.832;2022-12-29T06:30:19;18.10;13.30;8.60
42002;PMS7003;27693;50.506;30.832;2022-12-29T06:31:22;23.60;19.60;13.00
42002;PMS7003;27693;50.506;30.832;2022-12-29T06:32:25;24.70;18.40;13.00
42002;PMS7003;27693;50.506;30.832;2022-12-29T06:33:29;19.10;17.70;13.10
42002;PMS7003;27693;50.506;30.832;2022-12-29T06:34:32;17.40;14.70;10.70
42002;PMS7003;27693;50.506;30.832;2022-12-29T06:35:35;20.50;13.50;10.10
42002;PMS7003;27693;50.506;30.832;2022-12-29T06:36:38;20.82;15.45;9.64
42002;PMS7003;27693;50.506;30.832;2022-12-29T06:37:41;24.50;19.60;13.90
42002;PMS7003;27693;50.506;30.832;2022-12-29T06:38:43;20.80;17.70;13.00
42002;PMS7003;27693;50.506;30.832;2022-12-29T06:39:45;23.10;17.80;12.70
42002;PMS7003;27693;50.506;30.832;2022-12-29T06:40:49;19.80;16.30;9.80
42002;PMS7003;27693;50.506;30.832;2022-12-29T06:41:58;17.80;17.70;11.10
42002;PMS7003;27693;50.506;30.832;2022-12-29T06:43:15;17.80;15.60;12.40
42002;PMS7003;27693;50.506;30.832;2022-12-29T06:44:27;15.00;6.60;3.50
42002;PMS7003;27693;50.506;30.832;2022-12-29T06:45:31;24.60;21.20;14.60
42002;PMS7003;27693;50.506;30.832;2022-12-29T06:46:33;25.20;18.40;12.70
42002;PMS7003;27693;50.506;30.832;2022-12-29T06:47:36;23.00;18.80;13.30
42002;PMS7003;27693;50.506;30.832;2022-12-29T06:48:38;21.90;19.00;13.50
42002;PMS7003;27693;50.506;30.832;2022-12-29T06:49:43;25.40;19.70;13.30
42002;PMS7003;27693;50.506;30.832;2022-12-29T06:50:46;27.40;20.40;14.30
42002;PMS7003;27693;50.506;30.832;2022-12-29T06:51:50;23.30;17.20;13.30
42002;PMS7003;27693;50.506;30.832;2022-12-29T06:52:52;16.90;10.30;8.80